sensor_id;sensor_type;location;lat;lon;timestamp;P1;durP1;ratioP1;P2;durP2;ratioP2
10651;SDS011;5374;42.742;23.266;2022-08-14T00:01:52;18.67;;;15.50;;
10651;SDS011;5374;42.742;23.266;2022-08-14T00:04:39;17.67;;;15.77;;
10651;SDS011;5374;42.742;23.266;2022-08-14T00:07:26;17.00;;;15.30;;
10651;SDS011;5374;42.742;23.266;2022-08-14T00:10:16;18.53;;;15.53;;
10651;SDS011;5374;42.742;23.266;2022-08-14T00:13:05;19.43;;;15.43;;
10651;SDS011;5374;42.742;23.266;2022-08-14T00:15:53;15.97;;;14.27;;
10651;SDS011;5374;42.742;23.266;2022-08-14T00:18:41;17.43;;;15.37;;
10651;SDS011;5374;42.742;23.266;2022-08-14T00:21:28;16.97;;;15.23;;
10651;SDS011;5374;42.742;23.266;2022-08-14T00:24:15;16.97;;;15.07;;
10651;SDS011;5374;42.742;23.266;2022-08-14T00:27:04;16.77;;;15.00;;
10651;SDS011;5374;42.742;23.266;2022-08-14T00:29:51;18.30;;;15.07;;
10651;SDS011;5374;42.742;23.266;2022-08-14T00:32:38;18.37;;;15.33;;
10651;SDS011;5374;42.742;23.266;2022-08-14T00:35:25;19.73;;;16.33;;
10651;SDS011;5374;42.742;23.266;2022-08-14T00:38:12;18.03;;;15.20;;
10651;SDS011;5374;42.742;23.266;2022-08-14T00:41:00;19.27;;;15.70;;
10651;SDS011;5374;42.742;23.266;2022-08-14T00:43:48;17.10;;;15.30;;
10651;SDS011;5374;42.742;23.266;2022-08-14T00:46:36;19.53;;;16.90;;
10651;SDS011;5374;42.742;23.266;2022-08-14T00:49:23;18.47;;;16.07;;
10651;SDS011;5374;42.742;23.266;2022-08-14T00:52:11;16.43;;;14.73;;
10651;SDS011;5374;42.742;23.266;2022-08-14T00:54:59;18.17;;;14.97;;
10651;SDS011;5374;42.742;23.266;2022-08-14T00:57:47;18.60;;;15.03;;
10651;SDS011;5374;42.742;23.266;2022-08-14T01:00:57;18.47;;;15.53;;
10651;SDS011;5374;42.742;23.266;2022-08-14T01:03:45;19.17;;;15.63;;
10651;SDS011;5374;42.742;23.266;2022-08-14T01:06:33;19.77;;;14.73;;
10651;SDS011;5374;42.742;23.266;2022-08-14T01:09:20;18.63;;;16.73;;
10651;SDS011;5374;42.742;23.266;2022-08-14T01:12:08;16.80;;;14.80;;
10651;SDS011;5374;42.742;23.266;2022-08-14T01:14:56;19.13;;;15.87;;
10651;SDS011;5374;42.742;23.266;2022-08-14T01:17:46;18.67;;;16.77;;
10651;SDS011;5374;42.742;23.266;2022-08-14T01:21:06;18.07;;;16.17;;
10651;SDS011;5374;42.742;23.266;2022-08-14T01:23:57;20.60;;;16.50;;
10651;SDS011;5374;42.742;23.266;2022-08-14T01:26:45;21.10;;;17.70;;
10651;SDS011;5374;42.742;23.266;2022-08-14T01:29:33;18.47;;;16.37;;
10651;SDS011;5374;42.742;23.266;2022-08-14T01:32:22;17.60;;;15.80;;
10651;SDS011;5374;42.742;23.266;2022-08-14T01:35:09;17.57;;;15.77;;
10651;SDS011;5374;42.742;23.266;2022-08-14T01:37:57;17.47;;;15.60;;
10651;SDS011;5374;42.742;23.266;2022-08-14T01:40:46;22.07;;;17.77;;
10651;SDS011;5374;42.742;23.266;2022-08-14T01:43:41;19.43;;;16.90;;
10651;SDS011;5374;42.742;23.266;2022-08-14T01:46:30;19.03;;;16.83;;
10651;SDS011;5374;42.742;23.266;2022-08-14T01:49:19;14.67;;;13.17;;
10651;SDS011;5374;42.742;23.266;2022-08-14T01:52:08;13.43;;;12.03;;
10651;SDS011;5374;42.742;23.266;2022-08-14T01:54:57;13.87;;;12.47;;
10651;SDS011;5374;42.742;23.266;2022-08-14T01:57:47;12.70;;;11.37;;
10651;SDS011;5374;42.742;23.266;2022-08-14T02:00:34;19.23;;;16.17;;
10651;SDS011;5374;42.742;23.266;2022-08-14T02:03:24;21.03;;;16.63;;
10651;SDS011;5374;42.742;23.266;2022-08-14T02:06:14;21.23;;;18.20;;
10651;SDS011;5374;42.742;23.266;2022-08-14T02:09:02;24.90;;;19.97;;
10651;SDS011;5374;42.742;23.266;2022-08-14T02:11:49;22.63;;;20.20;;
10651;SDS011;5374;42.742;23.266;2022-08-14T02:14:39;22.07;;;19.43;;
10651;SDS011;5374;42.742;23.266;2022-08-14T02:17:26;21.73;;;19.40;;
10651;SDS011;5374;42.742;23.266;2022-08-14T02:20:14;21.97;;;19.40;;
10651;SDS011;5374;42.742;23.266;2022-08-14T02:23:02;21.10;;;18.90;;
10651;SDS011;5374;42.742;23.266;2022-08-14T02:25:49;21.03;;;18.23;;
10651;SDS011;5374;42.742;23.266;2022-08-14T02:28:37;21.63;;;17.73;;
10651;SDS011;5374;42.742;23.266;2022-08-14T02:31:25;20.47;;;18.27;;
10651;SDS011;5374;42.742;23.266;2022-08-14T02:34:18;22.17;;;19.43;;
10651;SDS011;5374;42.742;23.266;2022-08-14T02:37:08;26.50;;;20.00;;
10651;SDS011;5374;42.742;23.266;2022-08-14T02:39:57;21.60;;;19.27;;
10651;SDS011;5374;42.742;23.266;2022-08-14T02:42:44;24.50;;;20.93;;
10651;SDS011;5374;42.742;23.266;2022-08-14T02:45:32;26.03;;;20.40;;
10651;SDS011;5374;42.742;23.266;2022-08-14T02:48:20;24.17;;;20.70;;
10651;SDS011;5374;42.742;23.266;2022-08-14T02:51:13;26.23;;;22.70;;
10651;SDS011;5374;42.742;23.266;2022-08-14T02:54:00;28.73;;;22.20;;
10651;SDS011;5374;42.742;23.266;2022-08-14T02:56:48;27.17;;;22.20;;
10651;SDS011;5374;42.742;23.266;2022-08-14T02:59:35;27.43;;;23.57;;
10651;SDS011;5374;42.742;23.266;2022-08-14T03:02:23;25.77;;;22.27;;
10651;SDS011;5374;42.742;23.266;2022-08-14T03:05:13;26.33;;;21.97;;
10651;SDS011;5374;42.742;23.266;2022-08-14T03:08:05;24.27;;;21.13;;
10651;SDS011;5374;42.742;23.266;2022-08-14T03:10:54;24.33;;;20.77;;
10651;SDS011;5374;42.742;23.266;2022-08-14T03:13:42;22.13;;;19.93;;
10651;SDS011;5374;42.742;23.266;2022-08-14T03:16:31;22.37;;;19.97;;
10651;SDS011;5374;42.742;23.266;2022-08-14T03:19:20;23.77;;;20.30;;
10651;SDS011;5374;42.742;23.266;2022-08-14T03:22:08;22.77;;;20.47;;
10651;SDS011;5374;42.742;23.266;2022-08-14T03:24:55;22.53;;;19.70;;
10651;SDS011;5374;42.742;23.266;2022-08-14T03:27:43;21.87;;;19.57;;
10651;SDS011;5374;42.742;23.266;2022-08-14T03:30:30;25.13;;;20.67;;
10651;SDS011;5374;42.742;23.266;2022-08-14T03:33:17;27.17;;;20.83;;
10651;SDS011;5374;42.742;23.266;2022-08-14T03:36:05;23.60;;;21.17;;
10651;SDS011;5374;42.742;23.266;2022-08-14T03:38:58;23.57;;;21.03;;
10651;SDS011;5374;42.742;23.266;2022-08-14T03:41:46;24.60;;;22.03;;
10651;SDS011;5374;42.742;23.266;2022-08-14T03:44:33;30.07;;;24.90;;
10651;SDS011;5374;42.742;23.266;2022-08-14T03:47:23;27.23;;;24.27;;
10651;SDS011;5374;42.742;23.266;2022-08-14T03:50:11;26.17;;;23.47;;
10651;SDS011;5374;42.742;23.266;2022-08-14T03:52:58;31.80;;;26.03;;
10651;SDS011;5374;42.742;23.266;2022-08-14T03:55:47;30.40;;;25.53;;
10651;SDS011;5374;42.742;23.266;2022-08-14T03:58:37;27.00;;;22.83;;
10651;SDS011;5374;42.742;23.266;2022-08-14T04:01:26;27.33;;;21.80;;
10651;SDS011;5374;42.742;23.266;2022-08-14T04:04:13;25.43;;;21.80;;
10651;SDS011;5374;42.742;23.266;2022-08-14T04:07:00;26.03;;;22.33;;
10651;SDS011;5374;42.742;23.266;2022-08-14T04:09:48;26.07;;;21.93;;
10651;SDS011;5374;42.742;23.266;2022-08-14T04:12:36;25.43;;;22.40;;
10651;SDS011;5374;42.742;23.266;2022-08-14T04:15:23;27.00;;;23.00;;
10651;SDS011;5374;42.742;23.266;2022-08-14T04:18:11;26.63;;;23.30;;
10651;SDS011;5374;42.742;23.266;2022-08-14T04:20:58;27.33;;;23.53;;
10651;SDS011;5374;42.742;23.266;2022-08-14T04:23:46;25.53;;;22.60;;
10651;SDS011;5374;42.742;23.266;2022-08-14T04:26:33;27.70;;;23.07;;
10651;SDS011;5374;42.742;23.266;2022-08-14T04:29:22;26.20;;;22.97;;
10651;SDS011;5374;42.742;23.266;2022-08-14T04:32:09;26.13;;;23.33;;
10651;SDS011;5374;42.742;23.266;2022-08-14T04:34:57;25.67;;;22.97;;
10651;SDS011;5374;42.742;23.266;2022-08-14T04:37:44;28.07;;;24.23;;
10651;SDS011;5374;42.742;23.266;2022-08-14T04:40:48;27.17;;;23.80;;
10651;SDS011;5374;42.742;23.266;2022-08-14T04:43:52;26.37;;;23.57;;
10651;SDS011;5374;42.742;23.266;2022-08-14T04:46:41;27.17;;;23.07;;
10651;SDS011;5374;42.742;23.266;2022-08-14T04:49:50;26.07;;;22.37;;
10651;SDS011;5374;42.742;23.266;2022-08-14T04:52:38;25.93;;;22.53;;
10651;SDS011;5374;42.742;23.266;2022-08-14T04:55:25;26.10;;;21.93;;
10651;SDS011;5374;42.742;23.266;2022-08-14T04:58:12;26.30;;;23.47;;
10651;SDS011;5374;42.742;23.266;2022-08-14T05:00:59;30.40;;;23.13;;
10651;SDS011;5374;42.742;23.266;2022-08-14T05:03:49;23.80;;;21.30;;
10651;SDS011;5374;42.742;23.266;2022-08-14T05:06:37;23.33;;;20.83;;
10651;SDS011;5374;42.742;23.266;2022-08-14T05:09:25;20.33;;;18.23;;
10651;SDS011;5374;42.742;23.266;2022-08-14T05:12:12;20.40;;;18.30;;
10651;SDS011;5374;42.742;23.266;2022-08-14T05:14:59;23.57;;;21.27;;
10651;SDS011;5374;42.742;23.266;2022-08-14T05:17:46;22.50;;;20.07;;
10651;SDS011;5374;42.742;23.266;2022-08-14T05:20:36;19.73;;;17.83;;
10651;SDS011;5374;42.742;23.266;2022-08-14T05:23:25;16.50;;;14.90;;
10651;SDS011;5374;42.742;23.266;2022-08-14T05:26:14;16.50;;;14.80;;
10651;SDS011;5374;42.742;23.266;2022-08-14T05:29:02;15.47;;;14.00;;
10651;SDS011;5374;42.742;23.266;2022-08-14T05:31:52;16.13;;;14.53;;
10651;SDS011;5374;42.742;23.266;2022-08-14T05:34:40;15.10;;;13.70;;
10651;SDS011;5374;42.742;23.266;2022-08-14T05:37:29;15.90;;;14.10;;
10651;SDS011;5374;42.742;23.266;2022-08-14T05:40:16;14.53;;;13.03;;
10651;SDS011;5374;42.742;23.266;2022-08-14T05:43:03;14.60;;;13.17;;
10651;SDS011;5374;42.742;23.266;2022-08-14T05:45:50;14.97;;;13.47;;
10651;SDS011;5374;42.742;23.266;2022-08-14T05:48:37;14.07;;;12.70;;
10651;SDS011;5374;42.742;23.266;2022-08-14T05:51:25;15.27;;;13.73;;
10651;SDS011;5374;42.742;23.266;2022-08-14T05:54:15;14.57;;;13.23;;
10651;SDS011;5374;42.742;23.266;2022-08-14T05:57:02;15.23;;;13.73;;
10651;SDS011;5374;42.742;23.266;2022-08-14T05:59:50;15.37;;;13.80;;
10651;SDS011;5374;42.742;23.266;2022-08-14T06:02:37;14.30;;;13.00;;
10651;SDS011;5374;42.742;23.266;2022-08-14T06:05:24;15.30;;;13.90;;
10651;SDS011;5374;42.742;23.266;2022-08-14T06:08:13;15.80;;;14.27;;
10651;SDS011;5374;42.742;23.266;2022-08-14T06:11:04;14.87;;;13.43;;
10651;SDS011;5374;42.742;23.266;2022-08-14T06:13:53;13.20;;;12.00;;
10651;SDS011;5374;42.742;23.266;2022-08-14T06:16:40;13.33;;;12.10;;
10651;SDS011;5374;42.742;23.266;2022-08-14T06:19:29;11.67;;;10.67;;
10651;SDS011;5374;42.742;23.266;2022-08-14T06:22:17;11.77;;;10.77;;
10651;SDS011;5374;42.742;23.266;2022-08-14T06:25:04;10.67;;;9.67;;
10651;SDS011;5374;42.742;23.266;2022-08-14T06:27:54;9.87;;;8.97;;
10651;SDS011;5374;42.742;23.266;2022-08-14T06:30:42;10.07;;;9.17;;
10651;SDS011;5374;42.742;23.266;2022-08-14T06:33:29;8.50;;;7.77;;
10651;SDS011;5374;42.742;23.266;2022-08-14T06:36:16;8.93;;;8.13;;
10651;SDS011;5374;42.742;23.266;2022-08-14T06:39:03;7.73;;;7.03;;
10651;SDS011;5374;42.742;23.266;2022-08-14T06:41:50;7.17;;;6.57;;
10651;SDS011;5374;42.742;23.266;2022-08-14T06:44:39;6.60;;;6.00;;
10651;SDS011;5374;42.742;23.266;2022-08-14T06:47:26;6.60;;;6.00;;
10651;SDS011;5374;42.742;23.266;2022-08-14T06:50:14;6.80;;;6.20;;
10651;SDS011;5374;42.742;23.266;2022-08-14T06:53:02;6.67;;;5.70;;
10651;SDS011;5374;42.742;23.266;2022-08-14T06:55:49;6.80;;;6.10;;
10651;SDS011;5374;42.742;23.266;2022-08-14T06:58:37;7.63;;;6.37;;
10651;SDS011;5374;42.742;23.266;2022-08-14T07:01:25;7.00;;;6.40;;
10651;SDS011;5374;42.742;23.266;2022-08-14T07:04:30;6.73;;;6.17;;
10651;SDS011;5374;42.742;23.266;2022-08-14T07:07:36;8.07;;;7.37;;
10651;SDS011;5374;42.742;23.266;2022-08-14T07:10:23;7.50;;;6.90;;
10651;SDS011;5374;42.742;23.266;2022-08-14T07:13:11;7.57;;;6.87;;
10651;SDS011;5374;42.742;23.266;2022-08-14T07:15:59;7.27;;;6.03;;
10651;SDS011;5374;42.742;23.266;2022-08-14T07:18:48;7.20;;;6.50;;
10651;SDS011;5374;42.742;23.266;2022-08-14T07:21:36;6.93;;;6.23;;
10651;SDS011;5374;42.742;23.266;2022-08-14T07:24:23;6.90;;;6.30;;
10651;SDS011;5374;42.742;23.266;2022-08-14T07:27:11;6.53;;;5.93;;
10651;SDS011;5374;42.742;23.266;2022-08-14T07:29:58;7.33;;;6.73;;
10651;SDS011;5374;42.742;23.266;2022-08-14T07:32:45;7.60;;;6.90;;
10651;SDS011;5374;42.742;23.266;2022-08-14T07:35:34;6.90;;;6.30;;
10651;SDS011;5374;42.742;23.266;2022-08-14T07:38:22;7.63;;;6.90;;
10651;SDS011;5374;42.742;23.266;2022-08-14T07:41:11;7.27;;;6.53;;
10651;SDS011;5374;42.742;23.266;2022-08-14T07:43:58;7.17;;;6.47;;
10651;SDS011;5374;42.742;23.266;2022-08-14T07:46:45;7.60;;;6.90;;
10651;SDS011;5374;42.742;23.266;2022-08-14T07:49:32;7.30;;;6.60;;
10651;SDS011;5374;42.742;23.266;2022-08-14T07:52:21;7.30;;;6.53;;
10651;SDS011;5374;42.742;23.266;2022-08-14T07:55:09;7.83;;;7.13;;
10651;SDS011;5374;42.742;23.266;2022-08-14T07:57:57;7.20;;;6.50;;
10651;SDS011;5374;42.742;23.266;2022-08-14T08:00:44;7.27;;;6.57;;
10651;SDS011;5374;42.742;23.266;2022-08-14T08:03:32;7.93;;;6.03;;
10651;SDS011;5374;42.742;23.266;2022-08-14T08:06:20;7.13;;;6.53;;
10651;SDS011;5374;42.742;23.266;2022-08-14T08:09:09;7.60;;;5.80;;
10651;SDS011;5374;42.742;23.266;2022-08-14T08:11:58;6.47;;;5.43;;
10651;SDS011;5374;42.742;23.266;2022-08-14T08:14:47;4.80;;;4.40;;
10651;SDS011;5374;42.742;23.266;2022-08-14T08:17:36;4.77;;;4.37;;
10651;SDS011;5374;42.742;23.266;2022-08-14T08:20:25;5.00;;;4.60;;
10651;SDS011;5374;42.742;23.266;2022-08-14T08:23:13;5.13;;;4.63;;
10651;SDS011;5374;42.742;23.266;2022-08-14T08:26:03;4.90;;;4.50;;
10651;SDS011;5374;42.742;23.266;2022-08-14T08:28:54;3.77;;;3.47;;
10651;SDS011;5374;42.742;23.266;2022-08-14T08:31:47;4.80;;;4.03;;
10651;SDS011;5374;42.742;23.266;2022-08-14T08:34:42;3.47;;;3.17;;
10651;SDS011;5374;42.742;23.266;2022-08-14T08:37:33;4.40;;;3.70;;
10651;SDS011;5374;42.742;23.266;2022-08-14T08:40:24;4.27;;;3.60;;
10651;SDS011;5374;42.742;23.266;2022-08-14T08:43:18;4.97;;;3.67;;
10651;SDS011;5374;42.742;23.266;2022-08-14T08:46:07;4.23;;;3.83;;
10651;SDS011;5374;42.742;23.266;2022-08-14T08:48:56;4.20;;;3.80;;
10651;SDS011;5374;42.742;23.266;2022-08-14T08:51:43;4.47;;;3.63;;
10651;SDS011;5374;42.742;23.266;2022-08-14T08:54:30;4.13;;;3.83;;
10651;SDS011;5374;42.742;23.266;2022-08-14T08:57:18;3.73;;;3.43;;
10651;SDS011;5374;42.742;23.266;2022-08-14T09:00:13;3.60;;;3.30;;
10651;SDS011;5374;42.742;23.266;2022-08-14T09:03:04;4.40;;;4.00;;
10651;SDS011;5374;42.742;23.266;2022-08-14T09:05:54;9.00;;;6.60;;
10651;SDS011;5374;42.742;23.266;2022-08-14T09:08:44;3.90;;;3.60;;
10651;SDS011;5374;42.742;23.266;2022-08-14T09:11:31;4.10;;;3.80;;
10651;SDS011;5374;42.742;23.266;2022-08-14T09:14:18;4.17;;;3.77;;
10651;SDS011;5374;42.742;23.266;2022-08-14T09:17:07;3.80;;;3.50;;
10651;SDS011;5374;42.742;23.266;2022-08-14T09:19:55;6.47;;;3.07;;
10651;SDS011;5374;42.742;23.266;2022-08-14T09:22:43;3.97;;;3.67;;
10651;SDS011;5374;42.742;23.266;2022-08-14T09:25:32;4.00;;;3.57;;
10651;SDS011;5374;42.742;23.266;2022-08-14T09:28:20;3.37;;;3.07;;
10651;SDS011;5374;42.742;23.266;2022-08-14T09:31:07;2.90;;;2.70;;
10651;SDS011;5374;42.742;23.266;2022-08-14T09:34:00;3.83;;;2.97;;
10651;SDS011;5374;42.742;23.266;2022-08-14T09:37:05;3.00;;;2.80;;
10651;SDS011;5374;42.742;23.266;2022-08-14T09:40:07;2.80;;;2.60;;
10651;SDS011;5374;42.742;23.266;2022-08-14T09:43:06;2.87;;;2.67;;
10651;SDS011;5374;42.742;23.266;2022-08-14T09:46:12;2.77;;;2.57;;
10651;SDS011;5374;42.742;23.266;2022-08-14T09:49:02;3.00;;;2.70;;
10651;SDS011;5374;42.742;23.266;2022-08-14T09:51:51;3.43;;;3.10;;
10651;SDS011;5374;42.742;23.266;2022-08-14T09:54:51;3.20;;;2.90;;
10651;SDS011;5374;42.742;23.266;2022-08-14T09:57:42;4.67;;;2.90;;
10651;SDS011;5374;42.742;23.266;2022-08-14T10:00:34;2.80;;;2.60;;
10651;SDS011;5374;42.742;23.266;2022-08-14T10:03:28;3.53;;;2.73;;
10651;SDS011;5374;42.742;23.266;2022-08-14T10:06:19;3.17;;;2.97;;
10651;SDS011;5374;42.742;23.266;2022-08-14T10:09:09;3.27;;;2.70;;
10651;SDS011;5374;42.742;23.266;2022-08-14T10:11:57;2.73;;;2.50;;
10651;SDS011;5374;42.742;23.266;2022-08-14T10:14:45;3.37;;;2.40;;
10651;SDS011;5374;42.742;23.266;2022-08-14T10:17:32;2.97;;;2.70;;
10651;SDS011;5374;42.742;23.266;2022-08-14T10:20:30;2.80;;;2.60;;
10651;SDS011;5374;42.742;23.266;2022-08-14T10:23:20;3.40;;;3.17;;
10651;SDS011;5374;42.742;23.266;2022-08-14T10:26:09;2.90;;;2.70;;
10651;SDS011;5374;42.742;23.266;2022-08-14T10:29:03;2.80;;;2.60;;
10651;SDS011;5374;42.742;23.266;2022-08-14T10:31:55;2.80;;;2.60;;
10651;SDS011;5374;42.742;23.266;2022-08-14T10:34:43;2.90;;;2.70;;
10651;SDS011;5374;42.742;23.266;2022-08-14T10:37:36;2.80;;;2.50;;
10651;SDS011;5374;42.742;23.266;2022-08-14T10:40:27;2.80;;;2.60;;
10651;SDS011;5374;42.742;23.266;2022-08-14T10:43:17;2.60;;;2.40;;
10651;SDS011;5374;42.742;23.266;2022-08-14T10:46:11;3.30;;;3.00;;
10651;SDS011;5374;42.742;23.266;2022-08-14T10:49:00;2.50;;;2.30;;
10651;SDS011;5374;42.742;23.266;2022-08-14T10:51:55;3.20;;;2.90;;
10651;SDS011;5374;42.742;23.266;2022-08-14T10:54:50;2.53;;;2.33;;
10651;SDS011;5374;42.742;23.266;2022-08-14T10:57:47;3.30;;;2.60;;
10651;SDS011;5374;42.742;23.266;2022-08-14T11:00:36;2.50;;;2.30;;
10651;SDS011;5374;42.742;23.266;2022-08-14T11:03:35;2.70;;;2.50;;
10651;SDS011;5374;42.742;23.266;2022-08-14T11:06:23;3.37;;;2.63;;
10651;SDS011;5374;42.742;23.266;2022-08-14T11:09:10;3.10;;;2.53;;
10651;SDS011;5374;42.742;23.266;2022-08-14T11:11:58;3.10;;;2.80;;
10651;SDS011;5374;42.742;23.266;2022-08-14T11:14:50;2.60;;;2.40;;
10651;SDS011;5374;42.742;23.266;2022-08-14T11:17:39;3.03;;;2.73;;
10651;SDS011;5374;42.742;23.266;2022-08-14T11:20:27;3.23;;;2.67;;
10651;SDS011;5374;42.742;23.266;2022-08-14T11:23:16;2.80;;;2.60;;
10651;SDS011;5374;42.742;23.266;2022-08-14T11:26:07;2.80;;;2.60;;
10651;SDS011;5374;42.742;23.266;2022-08-14T11:28:54;2.60;;;2.40;;
10651;SDS011;5374;42.742;23.266;2022-08-14T11:31:45;2.47;;;2.23;;
10651;SDS011;5374;42.742;23.266;2022-08-14T11:34:34;2.60;;;2.40;;
10651;SDS011;5374;42.742;23.266;2022-08-14T11:37:22;2.83;;;2.63;;
10651;SDS011;5374;42.742;23.266;2022-08-14T11:40:14;2.90;;;2.70;;
10651;SDS011;5374;42.742;23.266;2022-08-14T11:43:03;3.43;;;2.50;;
10651;SDS011;5374;42.742;23.266;2022-08-14T11:45:51;5.37;;;2.53;;
10651;SDS011;5374;42.742;23.266;2022-08-14T11:48:50;3.00;;;2.40;;
10651;SDS011;5374;42.742;23.266;2022-08-14T11:51:39;3.33;;;2.50;;
10651;SDS011;5374;42.742;23.266;2022-08-14T11:54:26;2.70;;;2.50;;
10651;SDS011;5374;42.742;23.266;2022-08-14T11:57:13;2.80;;;2.60;;
10651;SDS011;5374;42.742;23.266;2022-08-14T12:00:03;3.00;;;2.73;;
10651;SDS011;5374;42.742;23.266;2022-08-14T12:02:53;2.90;;;2.70;;
10651;SDS011;5374;42.742;23.266;2022-08-14T12:05:42;2.63;;;2.43;;
10651;SDS011;5374;42.742;23.266;2022-08-14T12:08:32;2.80;;;2.60;;
10651;SDS011;5374;42.742;23.266;2022-08-14T12:11:20;2.60;;;2.40;;
10651;SDS011;5374;42.742;23.266;2022-08-14T12:14:08;2.70;;;2.50;;
10651;SDS011;5374;42.742;23.266;2022-08-14T12:16:59;2.83;;;2.63;;
10651;SDS011;5374;42.742;23.266;2022-08-14T12:19:49;2.50;;;2.30;;
10651;SDS011;5374;42.742;23.266;2022-08-14T12:22:39;2.77;;;2.57;;
10651;SDS011;5374;42.742;23.266;2022-08-14T12:25:28;3.07;;;2.67;;
10651;SDS011;5374;42.742;23.266;2022-08-14T12:28:15;4.73;;;2.83;;
10651;SDS011;5374;42.742;23.266;2022-08-14T12:31:10;3.23;;;2.93;;
10651;SDS011;5374;42.742;23.266;2022-08-14T12:34:04;2.73;;;2.53;;
10651;SDS011;5374;42.742;23.266;2022-08-14T12:37:00;3.33;;;2.40;;
10651;SDS011;5374;42.742;23.266;2022-08-14T12:39:51;2.90;;;2.60;;
10651;SDS011;5374;42.742;23.266;2022-08-14T12:42:39;2.87;;;2.67;;
10651;SDS011;5374;42.742;23.266;2022-08-14T12:45:28;3.30;;;3.00;;
10651;SDS011;5374;42.742;23.266;2022-08-14T12:48:17;3.07;;;2.77;;
10651;SDS011;5374;42.742;23.266;2022-08-14T12:51:13;2.70;;;2.50;;
10651;SDS011;5374;42.742;23.266;2022-08-14T12:54:10;3.50;;;3.20;;
10651;SDS011;5374;42.742;23.266;2022-08-14T12:57:04;4.23;;;3.67;;
10651;SDS011;5374;42.742;23.266;2022-08-14T12:59:58;4.83;;;3.10;;
10651;SDS011;5374;42.742;23.266;2022-08-14T13:02:56;3.37;;;3.07;;
10651;SDS011;5374;42.742;23.266;2022-08-14T13:05:44;3.73;;;3.37;;
10651;SDS011;5374;42.742;23.266;2022-08-14T13:08:34;4.00;;;3.53;;
10651;SDS011;5374;42.742;23.266;2022-08-14T13:11:21;4.30;;;3.30;;
10651;SDS011;5374;42.742;23.266;2022-08-14T13:14:17;3.80;;;3.50;;
10651;SDS011;5374;42.742;23.266;2022-08-14T13:17:09;3.93;;;3.60;;
10651;SDS011;5374;42.742;23.266;2022-08-14T13:19:58;4.10;;;3.77;;
10651;SDS011;5374;42.742;23.266;2022-08-14T13:22:47;4.40;;;4.00;;
10651;SDS011;5374;42.742;23.266;2022-08-14T13:25:34;4.67;;;4.27;;
10651;SDS011;5374;42.742;23.266;2022-08-14T13:28:25;4.97;;;4.57;;
10651;SDS011;5374;42.742;23.266;2022-08-14T13:31:14;5.13;;;4.73;;
10651;SDS011;5374;42.742;23.266;2022-08-14T13:34:02;4.90;;;4.50;;
10651;SDS011;5374;42.742;23.266;2022-08-14T13:36:50;5.37;;;4.30;;
10651;SDS011;5374;42.742;23.266;2022-08-14T13:39:38;4.50;;;4.10;;
10651;SDS011;5374;42.742;23.266;2022-08-14T13:42:27;5.67;;;4.30;;
10651;SDS011;5374;42.742;23.266;2022-08-14T13:45:14;4.03;;;3.53;;
10651;SDS011;5374;42.742;23.266;2022-08-14T13:48:04;3.90;;;3.50;;
10651;SDS011;5374;42.742;23.266;2022-08-14T13:50:52;3.33;;;3.03;;
10651;SDS011;5374;42.742;23.266;2022-08-14T13:53:43;4.63;;;3.00;;
10651;SDS011;5374;42.742;23.266;2022-08-14T13:56:32;4.20;;;3.80;;
10651;SDS011;5374;42.742;23.266;2022-08-14T13:59:23;3.93;;;3.40;;
10651;SDS011;5374;42.742;23.266;2022-08-14T14:02:17;3.43;;;3.13;;
10651;SDS011;5374;42.742;23.266;2022-08-14T14:05:08;4.87;;;3.57;;
10651;SDS011;5374;42.742;23.266;2022-08-14T14:07:57;3.90;;;3.60;;
10651;SDS011;5374;42.742;23.266;2022-08-14T14:10:46;4.53;;;3.87;;
10651;SDS011;5374;42.742;23.266;2022-08-14T14:13:34;5.00;;;4.60;;
10651;SDS011;5374;42.742;23.266;2022-08-14T14:16:23;6.00;;;5.40;;
10651;SDS011;5374;42.742;23.266;2022-08-14T14:19:11;5.43;;;5.03;;
10651;SDS011;5374;42.742;23.266;2022-08-14T14:22:00;5.70;;;4.83;;
10651;SDS011;5374;42.742;23.266;2022-08-14T14:24:48;5.23;;;4.73;;
10651;SDS011;5374;42.742;23.266;2022-08-14T14:27:35;4.80;;;4.30;;
10651;SDS011;5374;42.742;23.266;2022-08-14T14:30:23;6.07;;;4.73;;
10651;SDS011;5374;42.742;23.266;2022-08-14T14:33:14;4.63;;;4.23;;
10651;SDS011;5374;42.742;23.266;2022-08-14T14:36:02;5.00;;;4.57;;
10651;SDS011;5374;42.742;23.266;2022-08-14T14:38:52;4.90;;;4.27;;
10651;SDS011;5374;42.742;23.266;2022-08-14T14:41:40;5.20;;;4.70;;
10651;SDS011;5374;42.742;23.266;2022-08-14T14:44:32;4.40;;;4.00;;
10651;SDS011;5374;42.742;23.266;2022-08-14T14:47:24;4.67;;;4.27;;
10651;SDS011;5374;42.742;23.266;2022-08-14T14:50:13;4.00;;;3.70;;
10651;SDS011;5374;42.742;23.266;2022-08-14T14:53:05;4.00;;;3.60;;
10651;SDS011;5374;42.742;23.266;2022-08-14T14:55:56;3.77;;;3.47;;
10651;SDS011;5374;42.742;23.266;2022-08-14T14:58:45;4.57;;;3.87;;
10651;SDS011;5374;42.742;23.266;2022-08-14T15:01:32;5.20;;;4.10;;
10651;SDS011;5374;42.742;23.266;2022-08-14T15:04:21;5.23;;;4.73;;
10651;SDS011;5374;42.742;23.266;2022-08-14T15:07:08;6.27;;;4.63;;
10651;SDS011;5374;42.742;23.266;2022-08-14T15:09:56;5.03;;;4.63;;
10651;SDS011;5374;42.742;23.266;2022-08-14T15:12:45;5.07;;;4.57;;
10651;SDS011;5374;42.742;23.266;2022-08-14T15:15:33;4.73;;;4.33;;
10651;SDS011;5374;42.742;23.266;2022-08-14T15:18:22;4.03;;;3.73;;
10651;SDS011;5374;42.742;23.266;2022-08-14T15:21:10;4.87;;;4.37;;
10651;SDS011;5374;42.742;23.266;2022-08-14T15:23:58;4.97;;;4.50;;
10651;SDS011;5374;42.742;23.266;2022-08-14T15:26:45;4.87;;;4.43;;
10651;SDS011;5374;42.742;23.266;2022-08-14T15:29:34;4.80;;;4.30;;
10651;SDS011;5374;42.742;23.266;2022-08-14T15:32:24;5.07;;;4.50;;
10651;SDS011;5374;42.742;23.266;2022-08-14T15:35:11;4.33;;;3.93;;
10651;SDS011;5374;42.742;23.266;2022-08-14T15:37:59;5.07;;;4.60;;
10651;SDS011;5374;42.742;23.266;2022-08-14T15:40:52;7.10;;;4.00;;
10651;SDS011;5374;42.742;23.266;2022-08-14T15:43:40;4.90;;;4.00;;
10651;SDS011;5374;42.742;23.266;2022-08-14T15:46:29;4.13;;;3.73;;
10651;SDS011;5374;42.742;23.266;2022-08-14T15:49:16;5.70;;;4.00;;
10651;SDS011;5374;42.742;23.266;2022-08-14T15:52:04;4.70;;;4.27;;
10651;SDS011;5374;42.742;23.266;2022-08-14T15:54:52;8.03;;;4.60;;
10651;SDS011;5374;42.742;23.266;2022-08-14T15:57:39;5.83;;;5.33;;
10651;SDS011;5374;42.742;23.266;2022-08-14T16:00:27;5.33;;;4.77;;
10651;SDS011;5374;42.742;23.266;2022-08-14T16:03:41;4.20;;;3.80;;
10651;SDS011;5374;42.742;23.266;2022-08-14T16:06:28;4.30;;;3.90;;
10651;SDS011;5374;42.742;23.266;2022-08-14T16:09:15;4.40;;;4.00;;
10651;SDS011;5374;42.742;23.266;2022-08-14T16:12:03;4.13;;;3.73;;
10651;SDS011;5374;42.742;23.266;2022-08-14T16:14:51;4.63;;;4.23;;
10651;SDS011;5374;42.742;23.266;2022-08-14T16:17:38;4.57;;;3.80;;
10651;SDS011;5374;42.742;23.266;2022-08-14T16:20:28;3.77;;;3.47;;
10651;SDS011;5374;42.742;23.266;2022-08-14T16:23:19;4.13;;;3.70;;
10651;SDS011;5374;42.742;23.266;2022-08-14T16:26:06;4.47;;;4.03;;
10651;SDS011;5374;42.742;23.266;2022-08-14T16:28:56;4.60;;;4.20;;
10651;SDS011;5374;42.742;23.266;2022-08-14T16:31:47;5.53;;;5.00;;
10651;SDS011;5374;42.742;23.266;2022-08-14T16:34:35;9.07;;;7.17;;
10651;SDS011;5374;42.742;23.266;2022-08-14T16:37:26;4.80;;;4.40;;
10651;SDS011;5374;42.742;23.266;2022-08-14T16:40:14;4.67;;;4.27;;
10651;SDS011;5374;42.742;23.266;2022-08-14T16:43:01;7.57;;;5.30;;
10651;SDS011;5374;42.742;23.266;2022-08-14T16:45:49;4.50;;;4.10;;
10651;SDS011;5374;42.742;23.266;2022-08-14T16:48:38;3.70;;;3.40;;
10651;SDS011;5374;42.742;23.266;2022-08-14T16:51:26;3.80;;;3.40;;